Time;durP1;ratioP1;P1;durP2;ratioP2;P2;SDS_P1;SDS_P2;PMS_P1;PMS_P2;Temp;Humidity;BMP_temperature;BMP_pressure;BME280_temperature;BME280_humidity;BME280_pressure;Samples;Min_cycle;Max_cycle;Signal;HPM_P1;HPM_P2
2021/08/23 00:02:41;;;;;;;8.13;7.00;;;;;;;24.92;100.00;101258.63;4882030;29;20092;-67
2021/08/23 00:05:27;;;;;;;7.53;6.82;;;;;;;24.93;100.00;101266.56;4879866;29;20035;-67
2021/08/23 00:08:13;;;;;;;7.95;7.15;;;;;;;24.86;100.00;101261.72;4880011;29;20124;-67
2021/08/23 00:10:58;;;;;;;11.73;7.50;;;;;;;24.72;100.00;101269.84;4879665;29;20048;-67
2021/08/23 00:13:44;;;;;;;8.20;7.25;;;;;;;24.95;100.00;101259.28;4879717;29;20182;-67
2021/08/23 00:16:30;;;;;;;7.50;6.70;;;;;;;25.01;100.00;101268.72;4881453;29;20028;-67
2021/08/23 00:19:16;;;;;;;9.43;7.25;;;;;;;24.63;100.00;101276.66;4883341;29;20092;-66
2021/08/23 00:22:20;;;;;;;8.05;7.25;;;;;;;24.56;100.00;101269.97;4883581;29;20029;-67
2021/08/23 00:25:06;;;;;;;9.55;7.43;;;;;;;24.39;100.00;101267.53;4884755;29;20037;-67
2021/08/23 00:27:52;;;;;;;10.60;7.45;;;;;;;24.16;100.00;101278.03;4883741;29;20040;-67
2021/08/23 00:30:38;;;;;;;8.73;7.40;;;;;;;24.20;100.00;101275.06;4883083;29;20033;-66
2021/08/23 00:33:24;;;;;;;8.63;7.72;;;;;;;24.26;100.00;101284.53;4883348;29;20071;-67
2021/08/23 00:36:10;;;;;;;10.02;8.13;;;;;;;24.49;100.00;101287.41;4884808;29;20025;-67
2021/08/23 00:38:56;;;;;;;9.52;8.10;;;;;;;24.29;100.00;101274.47;4883341;29;20108;-67
2021/08/23 00:41:42;;;;;;;9.80;7.82;;;;;;;24.29;100.00;101284.31;4883688;29;20029;-67
2021/08/23 00:44:28;;;;;;;10.15;7.70;;;;;;;23.88;100.00;101288.75;4883912;29;20033;-67
2021/08/23 00:47:14;;;;;;;8.98;8.00;;;;;;;23.78;100.00;101280.44;4882984;29;20093;-67
2021/08/23 00:50:00;;;;;;;11.60;8.20;;;;;;;24.03;100.00;101277.94;4883530;29;20033;-67
2021/08/23 00:52:46;;;;;;;9.93;8.23;;;;;;;24.15;100.00;101273.66;4884449;29;20032;-66
2021/08/23 00:55:32;;;;;;;11.57;8.35;;;;;;;24.02;100.00;101278.06;4864166;29;20148;-67
2021/08/23 00:58:19;;;;;;;10.40;8.05;;;;;;;24.05;100.00;101275.19;4864714;29;20379;-68
2021/08/23 01:01:18;;;;;;;11.70;8.13;;;;;;;24.23;100.00;101277.53;4864108;29;20116;-67
2021/08/23 01:04:39;;;;;;;10.20;7.88;;;;;;;24.22;100.00;101267.78;4864714;29;20039;-67
2021/08/23 01:07:29;;;;;;;11.93;8.23;;;;;;;24.28;100.00;101267.41;4863980;29;20030;-67
2021/08/23 01:10:19;;;;;;;8.27;7.25;;;;;;;24.41;100.00;101264.75;4863944;29;20561;-66
2021/08/23 01:13:06;;;;;;;9.40;6.78;;;;;;;24.20;100.00;101266.16;4851407;29;20054;-66
2021/08/23 01:15:52;;;;;;;9.43;6.97;;;;;;;24.38;100.00;101260.47;4864238;29;20049;-67
2021/08/23 01:18:38;;;;;;;8.68;6.25;;;;;;;24.34;100.00;101266.16;4863783;29;20070;-66
2021/08/23 01:21:27;;;;;;;8.90;6.85;;;;;;;24.48;100.00;101266.94;4864014;29;20028;-66
2021/08/23 01:24:14;;;;;;;8.15;6.82;;;;;;;24.65;100.00;101266.72;4863995;29;20472;-66
2021/08/23 01:27:03;;;;;;;9.38;7.38;;;;;;;24.54;100.00;101262.97;4863665;29;20477;-66
2021/08/23 01:30:04;;;;;;;8.70;6.63;;;;;;;24.59;99.67;101264.41;4863872;29;20033;-66
2021/08/23 01:32:50;;;;;;;11.32;6.72;;;;;;;24.91;97.17;101260.44;4863981;29;20033;-66
2021/08/23 01:35:37;;;;;;;7.75;6.72;;;;;;;24.88;96.51;101251.75;4863385;29;20381;-66
2021/08/23 01:38:23;;;;;;;6.90;6.20;;;;;;;24.78;97.18;101258.69;4863810;29;20375;-67
2021/08/23 01:41:09;;;;;;;7.43;6.30;;;;;;;24.84;96.52;101255.59;4863592;29;20116;-66
2021/08/23 01:43:55;;;;;;;7.13;6.43;;;;;;;24.69;96.50;101262.00;4863653;29;20535;-66
2021/08/23 01:46:41;;;;;;;8.05;6.40;;;;;;;25.03;93.85;101256.91;4863808;29;20029;-67
2021/08/23 01:49:27;;;;;;;9.98;6.55;;;;;;;24.92;93.67;101256.81;4863345;29;20060;-67
2021/08/23 01:52:13;;;;;;;7.13;6.40;;;;;;;24.86;93.41;101251.84;4863580;29;20068;-67
2021/08/23 01:54:58;;;;;;;9.40;5.95;;;;;;;24.96;93.40;101252.97;4868837;29;20155;-67
2021/08/23 01:57:44;;;;;;;10.85;6.38;;;;;;;24.78;94.19;101250.66;4882329;29;20040;-67
2021/08/23 02:00:30;;;;;;;7.72;6.45;;;;;;;25.02;93.12;101254.34;4881769;29;20431;-67
2021/08/23 02:03:16;;;;;;;7.45;6.00;;;;;;;25.16;90.61;101248.91;4869564;29;20033;-67
2021/08/23 02:06:02;;;;;;;7.43;6.38;;;;;;;25.15;91.47;101252.56;4882622;29;20036;-67
2021/08/23 02:08:48;;;;;;;7.95;6.63;;;;;;;25.31;90.44;101250.56;4881730;29;20029;-67
2021/08/23 02:11:33;;;;;;;6.90;6.20;;;;;;;25.28;89.90;101259.66;4881194;29;20132;-67
2021/08/23 02:14:19;;;;;;;7.82;6.28;;;;;;;25.03;90.96;101254.25;4869118;29;20367;-67
2021/08/23 02:17:05;;;;;;;9.07;6.53;;;;;;;24.92;92.31;101259.50;4868690;29;20032;-67
2021/08/23 02:19:51;;;;;;;7.20;6.32;;;;;;;25.18;91.13;101261.25;4881600;29;20025;-67
2021/08/23 02:22:37;;;;;;;6.80;6.10;;;;;;;25.16;94.06;101260.47;4883041;29;20497;-67
2021/08/23 02:25:23;;;;;;;8.75;7.68;;;;;;;24.62;100.00;101271.41;4881063;29;20464;-66
2021/08/23 02:28:09;;;;;;;9.73;8.13;;;;;;;24.54;100.00;101262.97;4881320;29;20060;-67
2021/08/23 02:30:55;;;;;;;15.90;8.93;;;;;;;24.34;100.00;101274.19;4881646;29;20100;-68
2021/08/23 02:33:41;;;;;;;12.20;9.30;;;;;;;24.24;100.00;101271.22;4881410;29;20040;-67
2021/08/23 02:36:26;;;;;;;10.93;8.55;;;;;;;24.10;100.00;101273.09;4880893;29;20139;-67
2021/08/23 02:39:12;;;;;;;12.50;8.63;;;;;;;23.87;100.00;101281.69;4881464;29;20047;-67
2021/08/23 02:41:58;;;;;;;11.93;8.27;;;;;;;23.65;100.00;101274.16;4880347;29;20371;-67
2021/08/23 02:44:44;;;;;;;10.57;9.07;;;;;;;23.81;100.00;101274.03;4882486;29;20033;-67
2021/08/23 02:47:29;;;;;;;13.70;10.38;;;;;;;23.31;100.00;101279.88;4880875;29;20474;-67
2021/08/23 02:50:15;;;;;;;14.00;10.27;;;;;;;23.12;100.00;101272.03;4881228;29;20028;-67
2021/08/23 02:53:01;;;;;;;13.60;10.77;;;;;;;22.96;100.00;101279.28;4880771;29;20372;-67
2021/08/23 02:55:47;;;;;;;14.13;9.65;;;;;;;22.96;100.00;101279.28;4867576;29;20040;-67
2021/08/23 02:58:33;;;;;;;14.82;10.88;;;;;;;23.25;100.00;101278.44;4868183;29;20478;-67
2021/08/23 03:01:19;;;;;;;13.50;10.68;;;;;;;22.97;100.00;101278.34;4880577;29;20066;-67
2021/08/23 03:04:05;;;;;;;17.13;10.95;;;;;;;22.98;100.00;101281.84;4880914;29;20400;-68
2021/08/23 03:06:50;;;;;;;14.55;10.50;;;;;;;22.64;100.00;101290.13;4880391;29;20029;-67
2021/08/23 03:09:36;;;;;;;16.70;10.48;;;;;;;22.65;100.00;101286.50;4881487;29;20093;-67
2021/08/23 03:12:23;;;;;;;13.77;10.98;;;;;;;22.64;100.00;101291.00;4880260;29;20526;-67
2021/08/23 03:15:09;;;;;;;16.58;10.77;;;;;;;22.54;100.00;101289.81;4880802;29;20518;-67
2021/08/23 03:17:55;;;;;;;14.23;10.80;;;;;;;22.45;100.00;101292.97;4880391;29;20029;-67
2021/08/23 03:20:41;;;;;;;13.98;10.57;;;;;;;22.53;100.00;101288.09;4867415;29;20068;-67
2021/08/23 03:23:27;;;;;;;14.93;11.00;;;;;;;22.47;100.00;101293.75;4880498;29;20043;-67
2021/08/23 03:26:13;;;;;;;15.52;11.00;;;;;;;22.40;100.00;101287.03;4880764;29;20044;-66
2021/08/23 03:28:59;;;;;;;13.52;10.63;;;;;;;22.22;100.00;101287.22;4880303;29;20450;-66
2021/08/23 03:31:45;;;;;;;15.05;11.52;;;;;;;22.45;100.00;101286.75;4867277;29;20116;-67
2021/08/23 03:34:31;;;;;;;15.70;11.98;;;;;;;22.66;100.00;101299.78;4880469;29;20108;-67
2021/08/23 03:37:17;;;;;;;19.23;11.90;;;;;;;22.48;100.00;101291.97;4879993;29;20116;-66
2021/08/23 03:40:04;;;;;;;16.67;11.32;;;;;;;22.56;100.00;101290.59;4880268;29;20032;-66
2021/08/23 03:42:49;;;;;;;18.48;12.10;;;;;;;22.50;100.00;101290.94;4866371;29;20105;-66
2021/08/23 03:45:35;;;;;;;17.02;12.48;;;;;;;22.59;100.00;101301.06;4880348;29;20133;-67
2021/08/23 03:48:21;;;;;;;14.27;11.65;;;;;;;22.42;100.00;101297.63;4879912;29;20033;-67
2021/08/23 03:51:07;;;;;;;22.58;12.10;;;;;;;22.35;100.00;101307.78;4880094;29;20406;-67
2021/08/23 03:53:53;;;;;;;17.85;13.00;;;;;;;21.98;100.00;101305.44;4882696;29;20120;-67
2021/08/23 03:56:39;;;;;;;19.65;12.63;;;;;;;22.07;100.00;101314.75;4883885;29;20095;-67
2021/08/23 03:59:25;;;;;;;18.25;13.25;;;;;;;22.31;100.00;101314.25;4883959;29;20032;-66
2021/08/23 04:02:11;;;;;;;22.27;14.30;;;;;;;22.53;100.00;101317.47;4884097;29;20040;-67
2021/08/23 04:04:57;;;;;;;20.48;13.13;;;;;;;22.43;100.00;101320.72;4883847;29;20097;-67
2021/08/23 04:07:43;;;;;;;19.80;13.57;;;;;;;22.50;100.00;101319.44;4870595;29;20085;-66
2021/08/23 04:10:29;;;;;;;18.20;13.40;;;;;;;22.69;100.00;101323.66;4883968;29;20025;-66
2021/08/23 04:13:15;;;;;;;20.00;13.57;;;;;;;22.74;100.00;101326.91;4869934;29;20047;-67
2021/08/23 04:16:02;;;;;;;18.27;12.65;;;;;;;22.78;100.00;101323.13;4870639;29;20043;-68
2021/08/23 04:18:48;;;;;;;19.95;12.75;;;;;;;22.91;100.00;101321.44;4883413;29;20039;-67
2021/08/23 04:21:34;;;;;;;21.42;12.73;;;;;;;22.89;100.00;101326.03;4870797;29;20514;-67
2021/08/23 04:24:20;;;;;;;22.83;12.90;;;;;;;22.87;100.00;101329.75;4883346;29;20033;-67
2021/08/23 04:27:06;;;;;;;18.30;13.00;;;;;;;22.75;100.00;101336.63;4883431;29;20028;-67
2021/08/23 04:29:52;;;;;;;18.55;12.27;;;;;;;22.74;100.00;101336.72;4883200;29;20043;-67
2021/08/23 04:32:37;;;;;;;19.30;11.70;;;;;;;22.55;100.00;101334.25;4883672;29;20441;-68
2021/08/23 04:35:23;;;;;;;13.95;11.68;;;;;;;22.67;100.00;101336.22;4883246;29;20041;-68
2021/08/23 04:38:10;;;;;;;13.93;10.95;;;;;;;22.86;100.00;101334.22;4883931;29;20029;-67
2021/08/23 04:40:55;;;;;;;15.35;12.10;;;;;;;22.79;100.00;101335.50;4883065;29;20036;-67
2021/08/23 04:43:41;;;;;;;17.98;12.95;;;;;;;22.90;100.00;101338.44;4883278;29;20455;-67
2021/08/23 04:46:27;;;;;;;14.55;11.63;;;;;;;23.02;100.00;101331.50;4882963;29;20036;-67
2021/08/23 04:49:12;;;;;;;31.23;12.85;;;;;;;23.12;100.00;101340.72;4882904;29;20037;-68
2021/08/23 04:51:58;;;;;;;18.65;12.25;;;;;;;23.15;100.00;101346.72;4883060;29;20040;-67
2021/08/23 04:54:44;;;;;;;21.45;12.88;;;;;;;23.27;100.00;101346.03;4878275;29;20052;-67
2021/08/23 04:57:30;;;;;;;17.42;12.05;;;;;;;22.99;100.00;101353.09;4883774;29;20069;-67
2021/08/23 05:00:16;;;;;;;21.00;12.27;;;;;;;23.13;100.00;101350.44;4883078;29;20021;-67
2021/08/23 05:03:02;;;;;;;17.50;13.27;;;;;;;22.69;100.00;101358.38;4882935;29;20082;-68
2021/08/23 05:05:49;;;;;;;18.45;13.32;;;;;;;21.92;100.00;101353.81;4883182;29;20481;-68
2021/08/23 05:08:34;;;;;;;17.10;14.05;;;;;;;22.45;100.00;101349.06;4883240;29;20044;-65
2021/08/23 05:11:20;;;;;;;18.85;13.55;;;;;;;22.22;100.00;101343.28;4882923;29;20478;-67
2021/08/23 05:14:06;;;;;;;17.77;13.63;;;;;;;21.88;100.00;101340.72;4883138;29;20125;-67
2021/08/23 05:16:52;;;;;;;17.48;12.90;;;;;;;22.17;100.00;101338.19;4882899;29;20462;-67
2021/08/23 05:19:41;;;;;;;15.02;12.13;;;;;;;22.12;100.00;101337.59;4882882;29;20057;-68
2021/08/23 05:22:32;;;;;;;15.38;11.88;;;;;;;22.59;100.00;101334.97;4882666;29;20427;-67
2021/08/23 05:25:18;;;;;;;16.45;12.27;;;;;;;23.15;100.00;101328.00;4882793;29;20048;-67
2021/08/23 05:28:04;;;;;;;17.60;12.00;;;;;;;23.34;100.00;101330.47;4883373;29;20053;-68
2021/08/23 05:30:50;;;;;;;16.83;12.77;;;;;;;23.19;100.00;101331.38;4882627;29;20032;-68
2021/08/23 05:33:36;;;;;;;18.52;13.50;;;;;;;23.43;100.00;101330.78;4882679;29;20362;-68
2021/08/23 05:36:23;;;;;;;19.92;13.77;;;;;;;22.95;100.00;101339.00;4882543;29;20064;-67
2021/08/23 05:39:08;;;;;;;16.20;12.77;;;;;;;23.56;100.00;101330.03;4882902;29;20033;-67
2021/08/23 05:41:54;;;;;;;19.95;13.75;;;;;;;24.03;100.00;101339.53;4882585;29;20021;-67
2021/08/23 05:44:41;;;;;;;16.67;12.40;;;;;;;23.79;100.00;101342.88;4882036;29;20131;-67
2021/08/23 05:47:26;;;;;;;13.98;11.93;;;;;;;22.74;100.00;101355.44;4869380;29;20036;-68
2021/08/23 05:50:12;;;;;;;14.60;11.50;;;;;;;22.52;100.00;101349.59;4882691;29;20043;-68
2021/08/23 05:52:58;;;;;;;13.63;11.57;;;;;;;23.31;100.00;101346.72;4882594;29;20316;-67
2021/08/23 05:55:47;;;;;;;12.35;10.88;;;;;;;22.99;100.00;101353.09;4881875;29;20466;-68
2021/08/23 05:58:33;;;;;;;13.65;11.20;;;;;;;23.00;100.00;101352.13;4882229;29;20041;-67
2021/08/23 06:01:19;;;;;;;16.58;11.38;;;;;;;23.34;100.00;101339.38;4881604;29;20025;-67
2021/08/23 06:04:04;;;;;;;14.40;11.77;;;;;;;23.74;100.00;101345.81;4881804;29;20510;-67
2021/08/23 06:06:51;;;;;;;15.13;11.48;;;;;;;23.62;100.00;101345.72;4881370;29;20044;-67
2021/08/23 06:09:37;;;;;;;15.75;11.25;;;;;;;24.15;100.00;101345.94;4881721;29;20031;-67
2021/08/23 06:12:22;;;;;;;16.05;11.18;;;;;;;24.44;100.00;101351.16;4881443;29;20064;-67
2021/08/23 06:15:09;;;;;;;16.98;10.70;;;;;;;23.94;100.00;101348.16;4880838;29;20033;-67
2021/08/23 06:17:54;;;;;;;16.02;11.27;;;;;;;23.95;100.00;101344.50;4881454;29;20033;-68
2021/08/23 06:20:42;;;;;;;14.38;11.35;;;;;;;24.29;100.00;101346.78;4881726;29;20039;-69
2021/08/23 06:23:28;;;;;;;16.77;10.57;;;;;;;24.67;100.00;101336.31;4881355;29;20455;-68
2021/08/23 06:26:14;;;;;;;14.50;11.43;;;;;;;24.54;100.00;101343.38;4881400;29;20052;-68
2021/08/23 06:29:00;;;;;;;16.98;11.98;;;;;;;24.26;100.00;101333.59;4881438;29;20041;-68
2021/08/23 06:31:45;;;;;;;15.70;11.52;;;;;;;24.77;100.00;101332.91;4881516;29;20355;-66
2021/08/23 06:34:31;;;;;;;15.70;11.00;;;;;;;24.70;100.00;101328.03;4868155;29;20040;-67
2021/08/23 06:37:18;;;;;;;16.23;11.02;;;;;;;25.03;100.00;101332.00;4880925;29;20029;-67
2021/08/23 06:40:08;;;;;;;14.07;11.13;;;;;;;25.03;100.00;101331.16;4881917;29;20029;-68
2021/08/23 06:42:54;;;;;;;14.23;10.98;;;;;;;25.55;100.00;101334.72;4880804;29;20115;-68
2021/08/23 06:45:39;;;;;;;13.05;10.02;;;;;;;25.86;100.00;101329.75;4880891;29;20029;-68
2021/08/23 06:48:25;;;;;;;14.57;10.20;;;;;;;25.89;100.00;101339.41;4881287;29;20060;-68
2021/08/23 06:51:12;;;;;;;12.52;9.90;;;;;;;25.62;100.00;101336.00;4881098;29;20029;-67
2021/08/23 06:53:59;;;;;;;12.52;9.80;;;;;;;25.57;100.00;101335.47;4881590;29;20067;-67
2021/08/23 06:56:45;;;;;;;11.65;9.40;;;;;;;25.77;100.00;101329.56;4880619;29;20048;-68
2021/08/23 06:59:31;;;;;;;12.25;9.52;;;;;;;25.73;100.00;101334.28;4880612;29;20462;-67
2021/08/23 07:02:17;;;;;;;15.90;9.00;;;;;;;25.73;100.00;101330.72;4882653;29;20123;-67
2021/08/23 07:05:04;;;;;;;11.90;9.65;;;;;;;25.91;100.00;101332.09;4882693;29;20120;-66
2021/08/23 07:07:50;;;;;;;13.70;9.73;;;;;;;26.53;100.00;101333.84;4881497;29;20033;-66
2021/08/23 07:10:35;;;;;;;13.57;9.30;;;;;;;26.88;100.00;101342.88;4881268;29;20494;-66
2021/08/23 07:13:21;;;;;;;14.70;10.07;;;;;;;26.68;100.00;101340.81;4880462;29;20053;-66
2021/08/23 07:16:07;;;;;;;12.82;9.38;;;;;;;27.28;100.00;101344.25;4867248;29;20481;-66
2021/08/23 07:18:53;;;;;;;13.73;9.70;;;;;;;27.14;100.00;101341.75;4880292;29;20028;-66
2021/08/23 07:21:38;;;;;;;13.18;9.75;;;;;;;27.30;100.00;101328.84;4881669;29;20100;-66
2021/08/23 07:24:24;;;;;;;15.05;9.10;;;;;;;27.27;100.00;101332.66;4868152;29;20093;-66
2021/08/23 07:27:11;;;;;;;15.38;9.40;;;;;;;26.72;100.00;101339.59;4880281;29;20033;-66
2021/08/23 07:29:57;;;;;;;19.42;9.30;;;;;;;27.23;100.00;101330.31;4880273;29;20036;-66
2021/08/23 07:32:43;;;;;;;14.65;9.30;;;;;;;27.48;100.00;101330.97;4880184;29;20051;-66
2021/08/23 07:35:29;;;;;;;17.00;9.13;;;;;;;27.53;100.00;101328.78;4880202;29;20032;-66
2021/08/23 07:38:15;;;;;;;11.00;8.57;;;;;;;27.59;100.00;101332.84;4880657;29;20030;-66
2021/08/23 07:41:03;;;;;;;12.55;8.85;;;;;;;27.94;100.00;101328.25;4880695;29;20075;-66
2021/08/23 07:43:49;;;;;;;12.10;8.70;;;;;;;28.08;98.50;101328.00;4880317;29;20662;-66
2021/08/23 07:46:35;;;;;;;20.50;9.07;;;;;;;28.30;96.92;101332.50;4880058;29;20474;-66
2021/08/23 07:49:20;;;;;;;11.18;8.27;;;;;;;28.28;96.28;101324.53;4879850;29;20446;-65
2021/08/23 07:52:06;;;;;;;9.93;8.55;;;;;;;28.38;95.21;101324.66;4868111;29;20029;-66
2021/08/23 07:54:52;;;;;;;12.18;8.20;;;;;;;28.54;91.07;101323.31;4880951;29;20057;-66
2021/08/23 07:57:46;;;;;;;12.20;8.65;;;;;;;28.45;90.70;101320.50;4881631;29;20036;-66
2021/08/23 08:00:31;;;;;;;12.07;8.27;;;;;;;29.04;88.65;101313.69;4880277;29;20438;-66
2021/08/23 08:03:17;;;;;;;11.35;7.53;;;;;;;29.11;85.53;101315.75;4880433;29;20100;-66
2021/08/23 08:06:03;;;;;;;10.30;7.63;;;;;;;29.07;86.76;101311.63;4881234;29;20100;-66
2021/08/23 08:08:49;;;;;;;11.02;7.40;;;;;;;28.93;84.33;101322.66;4880019;29;20120;-66
2021/08/23 08:11:34;;;;;;;9.30;7.85;;;;;;;29.29;82.63;101307.94;4866283;29;20392;-66
2021/08/23 08:14:21;;;;;;;16.38;7.78;;;;;;;29.84;78.52;101311.13;4880042;29;20029;-66
2021/08/23 08:17:07;;;;;;;19.13;7.97;;;;;;;29.86;75.21;101303.72;4879616;29;20071;-67
2021/08/23 08:19:53;;;;;;;12.75;7.90;;;;;;;30.74;70.62;101307.47;4879965;29;20059;-67
2021/08/23 08:22:39;;;;;;;13.48;8.45;;;;;;;30.77;68.60;101305.31;4880750;29;20056;-67
2021/08/23 08:25:25;;;;;;;11.68;7.70;;;;;;;30.96;67.55;101307.19;4879499;29;20029;-68
2021/08/23 08:28:11;;;;;;;11.13;7.88;;;;;;;30.31;67.27;101302.38;4880076;29;20039;-68
2021/08/23 08:30:57;;;;;;;10.63;7.65;;;;;;;30.85;63.74;101296.47;4879474;29;20029;-68
2021/08/23 08:33:43;;;;;;;11.27;7.53;;;;;;;31.13;63.03;101296.47;4879643;29;20520;-68
2021/08/23 08:36:29;;;;;;;13.88;7.00;;;;;;;31.51;61.11;101289.31;4879382;29;20049;-67
2021/08/23 08:39:15;;;;;;;11.35;7.38;;;;;;;31.42;61.30;101287.50;4882304;29;20112;-67
2021/08/23 08:42:02;;;;;;;8.88;7.70;;;;;;;31.46;60.97;101289.75;4882928;29;20062;-67
2021/08/23 08:44:48;;;;;;;15.20;7.53;;;;;;;31.99;55.86;101282.75;4883695;29;20029;-68
2021/08/23 08:47:38;;;;;;;11.52;6.70;;;;;;;31.85;56.37;101290.53;4884432;29;20025;-68
2021/08/23 08:50:24;;;;;;;8.23;6.78;;;;;;;32.41;53.39;101288.53;4883433;29;20033;-68
2021/08/23 08:53:10;;;;;;;10.75;6.38;;;;;;;32.66;50.42;101287.78;4882668;29;20045;-68
2021/08/23 08:55:56;;;;;;;9.90;5.53;;;;;;;32.47;44.13;101282.50;4884845;29;20362;-68
2021/08/23 08:58:41;;;;;;;7.70;5.43;;;;;;;32.68;42.22;101283.91;4869582;29;20075;-68
2021/08/23 09:01:27;;;;;;;5.35;4.70;;;;;;;32.58;38.86;101276.84;4883744;29;20526;-68
2021/08/23 09:04:13;;;;;;;9.55;4.80;;;;;;;32.63;37.18;101274.53;4882691;29;20040;-67
2021/08/23 09:06:59;;;;;;;4.97;4.47;;;;;;;33.10;36.77;101282.28;4881717;29;20029;-67
2021/08/23 09:09:45;;;;;;;6.18;4.55;;;;;;;33.18;36.45;101273.38;4883045;29;20033;-68
2021/08/23 09:12:31;;;;;;;5.80;4.55;;;;;;;33.33;35.53;101274.50;4882770;29;20477;-66
2021/08/23 09:15:17;;;;;;;5.63;4.43;;;;;;;32.97;35.52;101265.53;4870505;29;20043;-67
2021/08/23 09:18:05;;;;;;;7.53;4.95;;;;;;;33.29;35.43;101270.38;4883165;29;20036;-66
2021/08/23 09:21:03;;;;;;;5.13;4.55;;;;;;;32.63;35.26;101269.09;4882811;29;20033;-66
2021/08/23 09:23:49;;;;;;;5.85;5.25;;;;;;;33.24;34.27;101270.84;4882097;29;20033;-66
2021/08/23 09:26:35;;;;;;;5.53;4.70;;;;;;;33.12;34.61;101258.53;4870127;29;20037;-67
2021/08/23 09:29:20;;;;;;;5.22;4.72;;;;;;;32.90;35.36;101252.75;4882132;29;20459;-67
2021/08/23 09:32:06;;;;;;;8.23;4.47;;;;;;;33.38;34.52;101258.56;4870731;29;20033;-67
2021/08/23 09:34:53;;;;;;;5.57;4.80;;;;;;;32.80;35.77;101252.81;4882742;29;20131;-66
2021/08/23 09:37:48;;;;;;;6.07;4.72;;;;;;;32.43;34.72;101257.53;4883063;29;20025;-66
2021/08/23 09:40:34;;;;;;;5.22;4.72;;;;;;;32.83;34.84;101249.78;4882683;29;20120;-68
2021/08/23 09:43:20;;;;;;;5.95;4.63;;;;;;;33.43;34.74;101259.78;4883870;29;20025;-65
2021/08/23 09:46:12;;;;;;;5.43;4.85;;;;;;;33.33;34.11;101248.19;4882380;29;20029;-65
2021/08/23 09:49:02;;;;;;;7.10;4.63;;;;;;;32.80;34.70;101246.53;4869563;29;20446;-66
2021/08/23 09:51:48;;;;;;;6.72;4.90;;;;;;;33.61;33.97;101240.72;4881875;29;20045;-66
2021/08/23 09:54:34;;;;;;;6.80;5.22;;;;;;;33.84;34.22;101247.31;4882234;29;20120;-66
2021/08/23 09:57:20;;;;;;;5.28;4.75;;;;;;;33.63;33.47;101231.38;4881886;29;20060;-66
2021/08/23 10:00:11;;;;;;;7.15;5.20;;;;;;;33.16;33.93;101237.34;4881811;29;20427;-65
2021/08/23 10:02:59;;;;;;;5.07;4.55;;;;;;;33.17;34.18;101226.31;4883649;29;20503;-66
2021/08/23 10:05:50;;;;;;;7.13;4.72;;;;;;;32.57;34.79;101215.41;4870057;29;20111;-66
2021/08/23 10:08:36;;;;;;;11.45;4.40;;;;;;;33.06;34.78;101226.56;4870409;29;20439;-66
2021/08/23 10:11:22;;;;;;;8.65;4.63;;;;;;;32.82;33.91;101226.38;4881758;29;20502;-66
2021/08/23 10:14:08;;;;;;;7.00;4.60;;;;;;;32.82;34.59;101218.22;4881726;29;20451;-65
2021/08/23 10:16:54;;;;;;;6.30;4.80;;;;;;;32.96;34.14;101216.81;4881852;29;20068;-65
2021/08/23 10:19:41;;;;;;;5.70;5.15;;;;;;;32.55;33.78;101203.88;4881470;29;20101;-67
2021/08/23 10:22:28;;;;;;;7.65;5.00;;;;;;;32.69;34.26;101203.31;4881918;29;20136;-66
2021/08/23 10:25:16;;;;;;;4.93;4.43;;;;;;;33.06;34.56;101204.00;4881033;29;20037;-66
2021/08/23 10:28:07;;;;;;;6.30;5.38;;;;;;;33.18;33.28;101209.00;4881881;29;20029;-66
2021/08/23 10:31:07;;;;;;;6.63;4.75;;;;;;;33.29;32.34;101203.31;4881009;29;20035;-66
2021/08/23 10:33:54;;;;;;;5.93;4.70;;;;;;;32.86;32.17;101194.34;4881674;29;20098;-66
2021/08/23 10:36:41;;;;;;;5.80;4.40;;;;;;;32.62;31.99;101192.25;4868369;29;20033;-66
2021/08/23 10:39:28;;;;;;;7.18;5.60;;;;;;;32.77;32.90;101196.09;4881662;29;20112;-66
2021/08/23 10:42:16;;;;;;;6.00;4.70;;;;;;;33.27;32.72;101191.72;4881035;29;20446;-66
2021/08/23 10:45:12;;;;;;;6.40;4.95;;;;;;;33.54;32.98;101190.72;4881850;29;20040;-66
2021/08/23 10:47:58;;;;;;;11.15;6.55;;;;;;;33.46;32.48;101191.53;4868085;29;20036;-66
2021/08/23 10:50:57;;;;;;;5.22;4.72;;;;;;;33.77;31.99;101184.56;4882472;29;20029;-66
2021/08/23 10:53:46;;;;;;;10.05;6.78;;;;;;;33.52;31.08;101190.91;4882161;29;20084;-66
2021/08/23 10:56:38;;;;;;;6.00;4.75;;;;;;;33.10;32.33;101183.66;4880485;29;20123;-66
2021/08/23 10:59:25;;;;;;;6.30;4.93;;;;;;;33.65;31.69;101191.31;4880710;29;20029;-67
2021/08/23 11:02:13;;;;;;;6.50;4.90;;;;;;;34.11;31.94;101179.09;4867959;29;20526;-66
2021/08/23 11:05:07;;;;;;;5.95;4.90;;;;;;;34.35;30.77;101177.28;4882614;29;20037;-67
2021/08/23 11:08:08;;;;;;;6.35;4.68;;;;;;;34.84;30.92;101172.75;4868835;29;20033;-66
2021/08/23 11:11:10;;;;;;;6.70;4.50;;;;;;;34.34;30.26;101161.97;4880792;29;20033;-67
2021/08/23 11:13:56;;;;;;;7.50;5.20;;;;;;;34.14;33.17;101160.56;4880603;29;20033;-67
2021/08/23 11:16:42;;;;;;;9.35;5.03;;;;;;;34.08;33.50;101154.94;4880455;29;20453;-67
2021/08/23 11:19:28;;;;;;;6.68;5.03;;;;;;;34.21;33.49;101153.44;4880537;29;20124;-66
2021/08/23 11:22:14;;;;;;;11.05;5.40;;;;;;;34.70;33.46;101152.44;4880333;29;20029;-67
2021/08/23 11:25:00;;;;;;;7.63;5.20;;;;;;;35.16;32.08;101153.63;4880167;29;20096;-67
2021/08/23 11:27:51;;;;;;;5.97;4.57;;;;;;;34.48;30.10;101152.28;4881446;29;20036;-68
2021/08/23 11:30:39;;;;;;;4.50;4.10;;;;;;;33.86;30.13;101150.09;4880140;29;20029;-68
2021/08/23 11:33:40;;;;;;;5.38;4.18;;;;;;;34.60;28.67;101140.88;4856064;29;20097;-67
2021/08/23 11:36:26;;;;;;;4.55;4.07;;;;;;;34.45;29.05;101141.72;4880419;29;20028;-67
2021/08/23 11:39:12;;;;;;;6.43;4.57;;;;;;;34.58;29.55;101142.94;4880761;29;20434;-67
2021/08/23 11:42:01;;;;;;;5.55;4.20;;;;;;;34.64;28.98;101130.50;4880852;29;20430;-66
2021/08/23 11:44:53;;;;;;;5.00;4.50;;;;;;;34.32;28.57;101123.19;4880811;29;20032;-67
2021/08/23 11:47:39;;;;;;;6.20;4.35;;;;;;;34.57;28.58;101122.19;4881173;29;20044;-67
2021/08/23 11:50:25;;;;;;;6.40;4.40;;;;;;;33.94;29.32;101125.66;4880727;29;20041;-66
2021/08/23 11:53:12;;;;;;;5.00;4.10;;;;;;;33.95;28.84;101124.66;4880699;29;20128;-66
2021/08/23 11:56:06;;;;;;;5.80;4.05;;;;;;;34.86;27.94;101118.94;4881261;29;20388;-67
2021/08/23 11:58:52;;;;;;;4.70;4.05;;;;;;;34.61;27.91;101119.97;4880592;29;20427;-66
2021/08/23 12:01:37;;;;;;;4.53;3.80;;;;;;;33.70;28.35;101112.81;4881633;29;20029;-66
2021/08/23 12:04:23;;;;;;;5.13;4.28;;;;;;;34.45;27.66;101109.06;4880354;29;20427;-66
2021/08/23 12:07:09;;;;;;;5.40;4.30;;;;;;;34.73;27.60;101099.53;4880442;29;20037;-66
2021/08/23 12:09:59;;;;;;;6.70;4.30;;;;;;;34.26;28.20;101103.94;4880965;29;20135;-65
2021/08/23 12:12:45;;;;;;;5.13;3.92;;;;;;;34.81;27.36;101091.38;4880238;29;20065;-66
2021/08/23 12:15:31;;;;;;;4.65;4.00;;;;;;;35.12;27.43;101090.41;4883823;29;20033;-66
2021/08/23 12:18:19;;;;;;;6.72;4.05;;;;;;;34.80;27.67;101086.97;4870678;29;20454;-67
2021/08/23 12:21:10;;;;;;;5.63;3.90;;;;;;;35.16;26.72;101088.22;4884526;29;20056;-66
2021/08/23 12:23:59;;;;;;;6.28;3.97;;;;;;;34.80;27.17;101087.78;4884043;29;20029;-66
2021/08/23 12:26:58;;;;;;;5.90;4.10;;;;;;;34.75;27.72;101078.41;4883585;29;20415;-67
2021/08/23 12:29:45;;;;;;;5.38;4.45;;;;;;;34.47;27.76;101074.38;4883350;29;20025;-67
2021/08/23 12:32:33;;;;;;;4.50;3.92;;;;;;;34.47;27.03;101083.38;4871837;29;20491;-67
2021/08/23 12:35:29;;;;;;;5.03;4.10;;;;;;;34.08;28.04;101079.59;4884293;29;20052;-68
2021/08/23 12:38:19;;;;;;;6.10;3.90;;;;;;;34.88;27.65;101070.59;4884304;29;20037;-66
2021/08/23 12:41:06;;;;;;;6.28;3.92;;;;;;;34.91;27.55;101068.38;4883505;29;20092;-66
2021/08/23 12:43:54;;;;;;;7.43;4.15;;;;;;;34.99;27.31;101078.38;4884280;29;20119;-67
2021/08/23 12:46:40;;;;;;;5.07;4.13;;;;;;;35.01;27.23;101073.63;4870681;29;20033;-68